createdAt,value
2023-05-14T00:01:14.683Z,96870.55
2023-05-14T00:03:43.077Z,96866.17
2023-05-14T00:06:11.479Z,96866.30
2023-05-14T00:08:39.773Z,96864.35
2023-05-14T00:11:09.169Z,96863.15
2023-05-14T00:13:37.744Z,96862.06
2023-05-14T00:16:06.207Z,96860.35
2023-05-14T00:18:34.671Z,96858.98
2023-05-14T00:21:03.318Z,96865.16
2023-05-14T00:23:31.712Z,96865.20
2023-05-14T00:26:00.090Z,96867.54
2023-05-14T00:28:28.436Z,96863.73
2023-05-14T00:30:57.371Z,96861.89
2023-05-14T00:33:25.783Z,96856.57
2023-05-14T00:35:54.179Z,96854.13
2023-05-14T00:38:24.303Z,96855.55
2023-05-14T00:40:52.677Z,96856.81
2023-05-14T00:43:22.778Z,96855.30
2023-05-14T00:45:54.352Z,96854.17
2023-05-14T00:48:23.758Z,96853.56
2023-05-14T00:50:52.339Z,96855.00
2023-05-14T00:53:21.408Z,96855.19
2023-05-14T00:55:50.611Z,96850.38
2023-05-14T00:58:19.658Z,96845.16
2023-05-14T01:00:48.385Z,96845.73
2023-05-14T01:03:16.941Z,96845.19
2023-05-14T01:05:51.481Z,96851.09
2023-05-14T01:08:31.633Z,96851.62
2023-05-14T01:11:06.770Z,96850.26
2023-05-14T01:14:10.193Z,96849.31
2023-05-14T01:16:40.730Z,96854.48
2023-05-14T01:19:21.750Z,96856.50
2023-05-14T01:21:49.911Z,96855.98
2023-05-14T01:24:18.265Z,96853.71
2023-05-14T01:26:46.689Z,96854.48
2023-05-14T01:29:23.313Z,96852.48
2023-05-14T01:31:54.440Z,96846.24
2023-05-14T01:34:24.607Z,96844.44
2023-05-14T01:36:54.005Z,96844.56
2023-05-14T01:39:24.268Z,96842.27
2023-05-14T01:41:53.618Z,96845.41
2023-05-14T01:44:22.104Z,96847.11
2023-05-14T01:46:50.458Z,96845.49
2023-05-14T01:49:19.781Z,96839.13
2023-05-14T01:51:48.133Z,96833.77
2023-05-14T01:54:16.408Z,96835.20
2023-05-14T01:56:44.728Z,96836.23
2023-05-14T01:59:13.058Z,96829.52
2023-05-14T02:01:41.893Z,96827.48
2023-05-14T02:04:10.253Z,96827.79
2023-05-14T02:06:38.572Z,96824.67
2023-05-14T02:09:07.078Z,96830.13
2023-05-14T02:11:35.587Z,96831.29
2023-05-14T02:14:03.892Z,96826.05
2023-05-14T02:16:32.376Z,96826.71
2023-05-14T02:19:00.831Z,96828.17
2023-05-14T02:21:29.171Z,96827.05
2023-05-14T02:23:57.625Z,96824.56
2023-05-14T02:26:25.952Z,96820.36
2023-05-14T02:28:54.307Z,96819.30
2023-05-14T02:31:22.705Z,96824.49
2023-05-14T02:33:51.576Z,96823.97
2023-05-14T02:36:20.314Z,96822.39
2023-05-14T02:38:48.656Z,96820.96
2023-05-14T02:41:16.944Z,96822.08
2023-05-14T02:43:45.214Z,96825.98
2023-05-14T02:46:13.590Z,96828.96
2023-05-14T02:48:42.015Z,96829.41
2023-05-14T02:51:10.575Z,96827.63
2023-05-14T02:53:39.044Z,96833.84
2023-05-14T02:56:08.246Z,96827.70
2023-05-14T02:58:36.539Z,96822.08
2023-05-14T03:01:05.065Z,96820.93
2023-05-14T03:03:34.321Z,96821.17
2023-05-14T03:06:03.151Z,96822.14
2023-05-14T03:08:31.524Z,96819.92
2023-05-14T03:11:00.074Z,96820.10
2023-05-14T03:13:28.414Z,96821.24
2023-05-14T03:15:57.111Z,96825.32
2023-05-14T03:18:25.540Z,96825.39
2023-05-14T03:20:54.074Z,96826.08
2023-05-14T03:23:23.461Z,96826.96
2023-05-14T03:25:53.630Z,96828.58
2023-05-14T03:28:21.957Z,96830.44
2023-05-14T03:30:50.389Z,96831.02
2023-05-14T03:33:18.798Z,96825.05
2023-05-14T03:35:47.231Z,96825.63
2023-05-14T03:38:15.656Z,96823.27
2023-05-14T03:40:45.378Z,96820.91
2023-05-14T03:43:13.761Z,96823.39
2023-05-14T03:45:42.052Z,96819.54
2023-05-14T03:48:10.546Z,96818.62
2023-05-14T03:50:39.133Z,96823.02
2023-05-14T03:53:07.569Z,96822.08
2023-05-14T03:55:36.885Z,96818.56
2023-05-14T03:58:11.107Z,96822.30
2023-05-14T04:00:43.582Z,96826.84
2023-05-14T04:03:12.236Z,96823.31
2023-05-14T04:05:40.695Z,96827.66
2023-05-14T04:08:09.082Z,96827.34
2023-05-14T04:10:37.525Z,96831.06
2023-05-14T04:13:06.200Z,96833.48
2023-05-14T04:15:39.387Z,96833.86
2023-05-14T04:18:08.031Z,96832.08
2023-05-14T04:20:37.105Z,96829.02
2023-05-14T04:23:05.556Z,96831.40
2023-05-14T04:25:34.044Z,96835.29
2023-05-14T04:28:02.362Z,96833.20
2023-05-14T04:30:30.812Z,96833.09
2023-05-14T04:32:59.202Z,96832.88
2023-05-14T04:35:27.869Z,96831.85
2023-05-14T04:37:56.897Z,96829.58
2023-05-14T04:40:25.764Z,96834.40
2023-05-14T04:42:54.317Z,96834.90
2023-05-14T04:45:22.690Z,96834.00
2023-05-14T04:47:51.580Z,96835.59
2023-05-14T04:50:20.052Z,96834.76
2023-05-14T04:52:48.317Z,96831.59
2023-05-14T04:55:16.755Z,96830.68
2023-05-14T04:57:45.099Z,96830.23
2023-05-14T05:00:13.933Z,96824.39
2023-05-14T05:02:42.322Z,96818.92
2023-05-14T05:05:11.044Z,96812.27
2023-05-14T05:07:39.335Z,96808.31
2023-05-14T05:10:08.457Z,96804.00
2023-05-14T05:12:36.776Z,96804.79
2023-05-14T05:15:05.764Z,96803.17
2023-05-14T05:17:34.066Z,96802.45
2023-05-14T05:20:02.376Z,96799.72
2023-05-14T05:22:30.981Z,96799.30
2023-05-14T05:24:59.958Z,96799.41
2023-05-14T05:27:28.418Z,96795.29
2023-05-14T05:29:57.014Z,96796.68
2023-05-14T05:32:25.627Z,96791.86
2023-05-14T05:34:54.061Z,96787.04
2023-05-14T05:37:22.351Z,96783.77
2023-05-14T05:39:50.689Z,96783.94
2023-05-14T05:42:18.981Z,96783.27
2023-05-14T05:44:47.556Z,96782.47
2023-05-14T05:47:17.264Z,96785.38
2023-05-14T05:49:45.628Z,96774.58
2023-05-14T05:52:14.037Z,96777.91
2023-05-14T05:54:42.362Z,96778.80
2023-05-14T05:57:10.760Z,96774.91
2023-05-14T05:59:39.107Z,96772.02
2023-05-14T06:02:07.424Z,96773.90
2023-05-14T06:04:35.791Z,96773.92
2023-05-14T06:07:04.544Z,96774.83
2023-05-14T06:09:32.811Z,96774.17
2023-05-14T06:12:01.169Z,96778.03
2023-05-14T06:14:29.570Z,96770.02
2023-05-14T06:16:58.831Z,96769.70
2023-05-14T06:19:27.235Z,96770.37
2023-05-14T06:21:56.166Z,96768.46
2023-05-14T06:24:24.524Z,96767.95
2023-05-14T06:26:52.813Z,96770.74
2023-05-14T06:29:21.148Z,96774.58
2023-05-14T06:31:49.665Z,96768.95
2023-05-14T06:34:17.989Z,96762.98
2023-05-14T06:36:46.394Z,96757.27
2023-05-14T06:39:14.746Z,96758.36
2023-05-14T06:41:43.151Z,96767.25
2023-05-14T06:44:17.251Z,96770.16
2023-05-14T06:46:45.584Z,96764.83
2023-05-14T06:49:13.984Z,96759.41
2023-05-14T06:51:42.699Z,96759.91
2023-05-14T06:54:11.044Z,96760.54
2023-05-14T06:56:39.363Z,96752.44
2023-05-14T06:59:07.679Z,96749.86
2023-05-14T07:01:36.148Z,96744.73
2023-05-14T07:04:04.689Z,96743.24
2023-05-14T07:06:33.016Z,96738.70
2023-05-14T07:09:02.047Z,96735.73
2023-05-14T07:11:30.489Z,96738.04
2023-05-14T07:13:58.847Z,96728.40
2023-05-14T07:16:27.407Z,96728.09
2023-05-14T07:18:55.748Z,96729.20
2023-05-14T07:21:24.114Z,96728.98
2023-05-14T07:23:52.383Z,96726.64
2023-05-14T07:26:21.569Z,96724.67
2023-05-14T07:28:50.101Z,96726.04
2023-05-14T07:31:18.498Z,96723.77
2023-05-14T07:33:46.876Z,96727.20
2023-05-14T07:36:15.240Z,96729.90
2023-05-14T07:38:43.509Z,96726.09
2023-05-14T07:41:12.353Z,96725.79
2023-05-14T07:43:40.796Z,96727.35
2023-05-14T07:46:09.153Z,96726.88
2023-05-14T07:48:37.506Z,96732.70
2023-05-14T07:51:05.872Z,96733.38
2023-05-14T07:53:34.169Z,96735.05
2023-05-14T07:56:02.521Z,96728.88
2023-05-14T07:58:31.018Z,96727.23
2023-05-14T08:00:59.481Z,96722.91
2023-05-14T08:03:27.840Z,96722.27
2023-05-14T08:05:56.602Z,96720.84
2023-05-14T08:08:24.955Z,96719.02
2023-05-14T08:10:53.402Z,96716.81
2023-05-14T08:13:21.876Z,96712.59
2023-05-14T08:15:50.297Z,96712.94
2023-05-14T08:18:18.592Z,96703.35
2023-05-14T08:20:47.201Z,96696.20
2023-05-14T08:23:15.563Z,96693.90
2023-05-14T08:25:43.835Z,96689.96
2023-05-14T08:28:12.312Z,96681.58
2023-05-14T08:30:40.728Z,96677.59
2023-05-14T08:33:09.402Z,96679.87
2023-05-14T08:35:37.786Z,96684.09
2023-05-14T08:38:06.172Z,96686.29
2023-05-14T08:40:34.875Z,96688.34
2023-05-14T08:43:03.860Z,96682.08
2023-05-14T08:45:34.475Z,96679.23
2023-05-14T08:48:09.171Z,96679.55
2023-05-14T08:50:37.871Z,96670.31
2023-05-14T08:53:06.342Z,96665.02
2023-05-14T08:55:35.439Z,96658.16
2023-05-14T08:58:04.075Z,96661.98
2023-05-14T09:00:32.415Z,96656.25
2023-05-14T09:03:01.587Z,96656.97
2023-05-14T09:05:30.128Z,96659.30
2023-05-14T09:07:58.522Z,96657.81
2023-05-14T09:10:27.046Z,96656.71
2023-05-14T09:12:55.495Z,96657.46
2023-05-14T09:15:27.834Z,96659.98
2023-05-14T09:17:56.940Z,96655.83
2023-05-14T09:20:26.612Z,96652.22
2023-05-14T09:22:55.176Z,96652.72
2023-05-14T09:25:28.517Z,96647.69
2023-05-14T09:27:59.030Z,96647.07
2023-05-14T09:30:27.509Z,96644.52
2023-05-14T09:32:55.884Z,96641.48
2023-05-14T09:35:25.554Z,96642.71
2023-05-14T09:37:55.601Z,96643.90
2023-05-14T09:40:25.000Z,96645.54
2023-05-14T09:42:53.679Z,96641.42
2023-05-14T09:45:22.229Z,96638.02
2023-05-14T09:47:50.764Z,96631.79
2023-05-14T09:50:19.456Z,96628.63
2023-05-14T09:52:47.997Z,96631.07
2023-05-14T09:55:16.524Z,96628.77
2023-05-14T09:57:45.257Z,96627.77
2023-05-14T10:00:14.219Z,96623.22
2023-05-14T10:02:45.211Z,96619.20
2023-05-14T10:05:16.079Z,96615.61
2023-05-14T10:07:48.333Z,96615.11
2023-05-14T10:10:19.837Z,96609.98
2023-05-14T10:13:01.217Z,96606.60
2023-05-14T10:15:43.617Z,96607.42
2023-05-14T10:18:16.536Z,96602.63
2023-05-14T10:20:49.137Z,96592.66
2023-05-14T10:23:18.106Z,96589.89
2023-05-14T10:25:46.705Z,96586.19
2023-05-14T10:28:15.129Z,96583.92
2023-05-14T10:30:47.128Z,96578.94
2023-05-14T10:33:18.328Z,96569.66
2023-05-14T10:36:03.428Z,96570.13
2023-05-14T10:38:37.103Z,96569.27
2023-05-14T10:41:10.635Z,96572.25
2023-05-14T10:43:40.481Z,96568.08
2023-05-14T10:46:11.145Z,96566.95
2023-05-14T10:48:41.201Z,96560.80
2023-05-14T10:51:11.076Z,96555.20
2023-05-14T10:53:41.979Z,96554.41
2023-05-14T10:56:12.368Z,96548.42
2023-05-14T10:58:44.862Z,96550.05
2023-05-14T11:01:13.910Z,96542.36
2023-05-14T11:03:47.138Z,96537.37
2023-05-14T11:06:16.472Z,96534.98
2023-05-14T11:08:46.607Z,96532.27
2023-05-14T11:11:15.236Z,96533.39
2023-05-14T11:13:44.905Z,96534.34
2023-05-14T11:16:23.513Z,96533.05
2023-05-14T11:19:03.798Z,96527.75
2023-05-14T11:21:35.096Z,96525.88
2023-05-14T11:24:05.605Z,96522.30
2023-05-14T11:26:34.499Z,96522.25
2023-05-14T11:29:02.979Z,96524.23
2023-05-14T11:31:31.644Z,96518.29
2023-05-14T11:34:01.157Z,96516.47
2023-05-14T11:36:29.476Z,96514.31
2023-05-14T11:38:57.809Z,96515.32
2023-05-14T11:41:28.274Z,96513.40
2023-05-14T11:43:58.228Z,96507.75
2023-05-14T11:46:26.729Z,96511.33
2023-05-14T11:48:55.441Z,96511.13
2023-05-14T11:51:24.751Z,96511.02
2023-05-14T11:53:54.432Z,96512.42
2023-05-14T11:56:22.788Z,96509.70
2023-05-14T11:58:58.387Z,96509.55
2023-05-14T12:01:28.651Z,96516.46
2023-05-14T12:03:57.117Z,96507.85
2023-05-14T12:06:31.898Z,96506.71
2023-05-14T12:09:01.725Z,96500.30
2023-05-14T12:11:33.581Z,96497.66
2023-05-14T12:14:02.105Z,96497.95
2023-05-14T12:16:35.443Z,96500.02
2023-05-14T12:19:05.291Z,96499.02
2023-05-14T12:21:34.956Z,96498.11
2023-05-14T12:24:03.605Z,96497.54
2023-05-14T12:26:35.164Z,96492.73
2023-05-14T12:29:04.041Z,96494.39
2023-05-14T12:31:35.248Z,96499.38
2023-05-14T12:34:04.489Z,96503.84
2023-05-14T12:36:32.986Z,96499.67
2023-05-14T12:39:03.945Z,96497.11
2023-05-14T12:41:33.805Z,96495.17
2023-05-14T12:44:04.192Z,96495.14
2023-05-14T12:46:33.327Z,96493.28
2023-05-14T12:49:01.756Z,96487.69
2023-05-14T12:51:30.184Z,96486.23
2023-05-14T12:53:58.492Z,96480.32
2023-05-14T12:56:28.581Z,96487.20
2023-05-14T12:58:57.089Z,96495.94
2023-05-14T13:01:25.543Z,96499.67
2023-05-14T13:03:54.118Z,96498.89
2023-05-14T13:06:22.627Z,96498.13
2023-05-14T13:08:50.983Z,96499.76
2023-05-14T13:11:19.272Z,96495.89
2023-05-14T13:13:47.588Z,96495.82
2023-05-14T13:16:17.103Z,96496.88
2023-05-14T13:18:45.714Z,96493.73
2023-05-14T13:21:14.210Z,96486.18
2023-05-14T13:23:42.648Z,96476.10
2023-05-14T13:26:11.056Z,96478.22
2023-05-14T13:28:39.349Z,96475.30
2023-05-14T13:31:12.856Z,96466.20
2023-05-14T13:33:43.086Z,96461.06
2023-05-14T13:36:14.428Z,96456.52
2023-05-14T13:38:42.856Z,96449.49
2023-05-14T13:41:11.128Z,96443.81
2023-05-14T13:43:39.457Z,96439.23
2023-05-14T13:46:07.920Z,96435.29
2023-05-14T13:48:37.374Z,96431.70
2023-05-14T13:51:05.817Z,96425.09
2023-05-14T13:53:34.260Z,96415.26
2023-05-14T13:56:02.802Z,96411.34
2023-05-14T13:58:31.161Z,96408.82
2023-05-14T14:00:59.617Z,96401.28
2023-05-14T14:03:27.945Z,96399.77
2023-05-14T14:05:56.292Z,96396.39
2023-05-14T14:08:24.861Z,96392.70
2023-05-14T14:10:55.394Z,96384.83
2023-05-14T14:13:24.513Z,96374.45
2023-05-14T14:15:53.064Z,96370.95
2023-05-14T14:18:21.504Z,96369.45
2023-05-14T14:20:49.995Z,96369.73
2023-05-14T14:23:19.742Z,96370.61
2023-05-14T14:25:48.301Z,96374.38
2023-05-14T14:28:16.702Z,96361.42
2023-05-14T14:30:45.202Z,96352.19
2023-05-14T14:33:13.574Z,96353.02
2023-05-14T14:35:41.907Z,96357.94
2023-05-14T14:38:10.155Z,96357.64
2023-05-14T14:40:38.604Z,96357.02
2023-05-14T14:43:06.936Z,96357.16
2023-05-14T14:45:35.217Z,96362.09
2023-05-14T14:48:22.983Z,96362.23
2023-05-14T14:50:52.124Z,96370.86
2023-05-14T14:53:23.782Z,96364.60
2023-05-14T14:55:52.430Z,96366.59
2023-05-14T14:58:21.359Z,96362.87
2023-05-14T15:00:53.485Z,96366.14
2023-05-14T15:03:22.663Z,96371.77
2023-05-14T15:05:52.318Z,96370.48
2023-05-14T15:08:27.592Z,96370.80
2023-05-14T15:10:56.638Z,96363.20
2023-05-14T15:13:25.873Z,96355.89
2023-05-14T15:15:54.413Z,96338.63
2023-05-14T15:18:22.877Z,96321.70
2023-05-14T15:20:52.246Z,96318.30
2023-05-14T15:23:20.697Z,96317.91
2023-05-14T15:25:49.636Z,96317.87
2023-05-14T15:28:18.015Z,96316.58
2023-05-14T15:30:48.524Z,96328.05
2023-05-14T15:33:19.426Z,96331.52
2023-05-14T15:35:48.159Z,96326.14
2023-05-14T15:38:16.518Z,96323.84
2023-05-14T15:40:44.950Z,96315.58
2023-05-14T15:43:13.295Z,96304.44
2023-05-14T15:45:43.229Z,96292.25
2023-05-14T15:48:11.764Z,96302.82
2023-05-14T15:50:40.494Z,96314.36
2023-05-14T15:53:11.301Z,96314.46
2023-05-14T15:55:39.737Z,96311.30
2023-05-14T15:58:08.135Z,96306.77
2023-05-14T16:00:36.588Z,96297.66
2023-05-14T16:03:05.451Z,96282.58
2023-05-14T16:05:34.436Z,96273.52
2023-05-14T16:08:03.771Z,96273.16
2023-05-14T16:10:32.157Z,96279.94
2023-05-14T16:13:00.550Z,96289.21
2023-05-14T16:15:29.225Z,96293.78
2023-05-14T16:17:57.571Z,96296.06
2023-05-14T16:20:26.090Z,96291.85
2023-05-14T16:22:54.743Z,96292.35
2023-05-14T16:25:23.183Z,96293.95
2023-05-14T16:27:51.538Z,96290.58
2023-05-14T16:30:19.885Z,96292.27
2023-05-14T16:32:49.710Z,96287.79
2023-05-14T16:35:18.062Z,96292.20
2023-05-14T16:37:46.464Z,96299.38
2023-05-14T16:40:16.303Z,96301.77
2023-05-14T16:42:46.436Z,96292.86
2023-05-14T16:45:16.228Z,96296.50
2023-05-14T16:47:44.672Z,96302.14
2023-05-14T16:50:13.101Z,96303.27
2023-05-14T16:52:41.381Z,96309.27
2023-05-14T16:55:10.102Z,96312.73
2023-05-14T16:57:38.520Z,96313.94
2023-05-14T17:00:07.902Z,96306.34
2023-05-14T17:02:36.452Z,96300.91
2023-05-14T17:05:05.911Z,96303.54
2023-05-14T17:07:34.424Z,96302.91
2023-05-14T17:10:02.818Z,96293.06
2023-05-14T17:12:31.241Z,96293.07
2023-05-14T17:14:59.675Z,96292.16
2023-05-14T17:17:29.162Z,96289.24
2023-05-14T17:19:57.513Z,96290.81
2023-05-14T17:22:26.058Z,96293.23
2023-05-14T17:24:54.507Z,96291.54
2023-05-14T17:27:23.108Z,96289.23
2023-05-14T17:29:51.520Z,96280.26
2023-05-14T17:32:19.876Z,96271.41
2023-05-14T17:34:48.258Z,96269.91
2023-05-14T17:37:16.661Z,96267.37
2023-05-14T17:39:44.937Z,96259.52
2023-05-14T17:42:13.289Z,96269.64
2023-05-14T17:44:41.613Z,96263.60
2023-05-14T17:47:10.374Z,96264.84
2023-05-14T17:49:39.038Z,96259.33
2023-05-14T17:52:10.557Z,96258.33
2023-05-14T17:54:38.872Z,96265.05
2023-05-14T17:57:07.329Z,96274.88
2023-05-14T17:59:35.722Z,96278.05
2023-05-14T18:02:05.792Z,96281.79
2023-05-14T18:04:34.227Z,96284.30
2023-05-14T18:07:03.378Z,96288.90
2023-05-14T18:09:31.908Z,96287.95
2023-05-14T18:12:00.217Z,96282.63
2023-05-14T18:14:28.660Z,96283.52
2023-05-14T18:16:57.222Z,96286.52
2023-05-14T18:19:25.752Z,96285.92
2023-05-14T18:21:55.603Z,96285.61
2023-05-14T18:24:24.012Z,96283.63
2023-05-14T18:26:52.456Z,96281.44
2023-05-14T18:29:20.760Z,96278.66
2023-05-14T18:31:49.188Z,96283.82
2023-05-14T18:34:17.654Z,96282.65
2023-05-14T18:36:46.584Z,96280.39
2023-05-14T18:39:14.861Z,96281.31
2023-05-14T18:41:43.179Z,96289.59
2023-05-14T18:44:11.466Z,96295.78
2023-05-14T18:46:40.015Z,96294.88
2023-05-14T18:49:08.599Z,96291.08
2023-05-14T18:51:37.009Z,96289.48
2023-05-14T18:54:05.509Z,96278.59
2023-05-14T18:56:35.055Z,96274.96
2023-05-14T18:59:04.519Z,96266.08
2023-05-14T19:01:32.885Z,96270.16
2023-05-14T19:04:03.133Z,96273.34
2023-05-14T19:06:33.110Z,96277.27
2023-05-14T19:09:01.602Z,96279.08
2023-05-14T19:11:29.876Z,96277.86
2023-05-14T19:13:58.300Z,96276.13
2023-05-14T19:16:27.221Z,96267.07
2023-05-14T19:18:55.861Z,96261.47
2023-05-14T19:21:24.206Z,96257.07
2023-05-14T19:23:52.841Z,96256.41
2023-05-14T19:26:21.886Z,96254.30
2023-05-14T19:28:50.537Z,96256.21
2023-05-14T19:31:18.835Z,96256.83
2023-05-14T19:33:47.236Z,96258.91
2023-05-14T19:36:15.769Z,96252.49
2023-05-14T19:38:44.145Z,96252.33
2023-05-14T19:41:12.966Z,96245.45
2023-05-14T19:43:41.354Z,96237.12
2023-05-14T19:46:09.782Z,96233.86
2023-05-14T19:48:38.989Z,96236.66
2023-05-14T19:51:07.587Z,96242.92
2023-05-14T19:53:35.931Z,96241.80
2023-05-14T19:56:04.512Z,96244.73
2023-05-14T19:58:32.793Z,96246.69
2023-05-14T20:01:01.161Z,96236.88
2023-05-14T20:03:30.057Z,96231.01
2023-05-14T20:05:58.406Z,96221.92
2023-05-14T20:08:26.877Z,96218.85
2023-05-14T20:10:55.422Z,96217.02
2023-05-14T20:13:25.278Z,96217.25
2023-05-14T20:15:55.334Z,96212.89
2023-05-14T20:18:23.925Z,96210.65
2023-05-14T20:20:52.292Z,96203.55
2023-05-14T20:23:20.920Z,96197.83
2023-05-14T20:25:49.389Z,96194.52
2023-05-14T20:28:17.779Z,96192.05
2023-05-14T20:30:46.133Z,96187.23
2023-05-14T20:33:15.140Z,96185.49
2023-05-14T20:35:44.217Z,96180.58
2023-05-14T20:38:13.499Z,96182.41
2023-05-14T20:40:41.865Z,96181.57
2023-05-14T20:43:10.433Z,96183.18
2023-05-14T20:45:39.308Z,96190.98
2023-05-14T20:48:10.253Z,96190.08
2023-05-14T20:50:38.703Z,96182.55
2023-05-14T20:53:07.056Z,96177.86
2023-05-14T20:55:35.501Z,96160.85
2023-05-14T20:58:04.040Z,96162.94
2023-05-14T21:00:32.327Z,96162.05
2023-05-14T21:03:00.970Z,96165.23
2023-05-14T21:05:29.605Z,96179.05
2023-05-14T21:07:57.953Z,96180.24
2023-05-14T21:10:26.580Z,96169.16
2023-05-14T21:12:55.131Z,96166.86
2023-05-14T21:15:23.892Z,96168.48
2023-05-14T21:17:52.577Z,96170.58
2023-05-14T21:20:21.107Z,96175.74
2023-05-14T21:22:49.382Z,96169.82
2023-05-14T21:25:17.852Z,96165.55
2023-05-14T21:27:46.423Z,96158.97
2023-05-14T21:30:15.050Z,96149.50
2023-05-14T21:32:43.433Z,96141.98
2023-05-14T21:35:11.760Z,96145.27
2023-05-14T21:37:40.624Z,96157.13
2023-05-14T21:40:09.821Z,96168.92
2023-05-14T21:42:39.692Z,96172.10
2023-05-14T21:45:08.520Z,96180.54
2023-05-14T21:47:37.504Z,96182.06
2023-05-14T21:50:07.017Z,96167.10
2023-05-14T21:52:37.040Z,96157.14
2023-05-14T21:55:05.805Z,96148.55
2023-05-14T21:57:34.623Z,96153.48
2023-05-14T22:00:07.916Z,96159.50
2023-05-14T22:02:36.314Z,96159.86
2023-05-14T22:05:05.418Z,96156.53
2023-05-14T22:07:33.752Z,96147.99
2023-05-14T22:10:02.407Z,96138.05
2023-05-14T22:12:30.922Z,96137.39
2023-05-14T22:14:59.221Z,96139.39
2023-05-14T22:17:30.422Z,96139.35
2023-05-14T22:19:58.755Z,96142.20
2023-05-14T22:22:27.156Z,96138.51
2023-05-14T22:24:55.808Z,96134.33
2023-05-14T22:27:24.111Z,96131.28
2023-05-14T22:29:52.508Z,96128.86
2023-05-14T22:32:21.255Z,96131.57
2023-05-14T22:34:49.665Z,96129.98
2023-05-14T22:37:18.123Z,96134.18
2023-05-14T22:39:46.463Z,96137.73
2023-05-14T22:42:14.784Z,96131.24
2023-05-14T22:44:43.060Z,96121.17
2023-05-14T22:47:11.404Z,96116.29
2023-05-14T22:49:43.761Z,96117.00
2023-05-14T22:52:12.168Z,96118.92
2023-05-14T22:54:40.495Z,96120.19
2023-05-14T22:57:08.831Z,96121.45
2023-05-14T22:59:37.182Z,96118.69
2023-05-14T23:02:06.024Z,96119.30
2023-05-14T23:04:35.808Z,96113.41
2023-05-14T23:07:04.395Z,96110.35
2023-05-14T23:09:32.658Z,96105.25
2023-05-14T23:12:00.922Z,96095.64
2023-05-14T23:14:29.175Z,96085.95
2023-05-14T23:16:57.532Z,96078.51
2023-05-14T23:19:26.784Z,96076.23
2023-05-14T23:21:55.180Z,96073.52
2023-05-14T23:24:23.501Z,96071.14
2023-05-14T23:26:51.886Z,96068.52
2023-05-14T23:29:20.190Z,96064.80
2023-05-14T23:31:48.640Z,96066.30
2023-05-14T23:34:18.618Z,96067.73
2023-05-14T23:36:46.905Z,96071.41
2023-05-14T23:39:15.201Z,96062.71
2023-05-14T23:41:43.524Z,96060.84
2023-05-14T23:44:11.848Z,96055.98
2023-05-14T23:46:40.205Z,96050.70
2023-05-14T23:49:08.518Z,96048.03
2023-05-14T23:51:37.838Z,96049.59
2023-05-14T23:54:06.200Z,96049.23
2023-05-14T23:56:34.644Z,96049.11
2023-05-14T23:59:03.763Z,96054.14
